Главная страница
METAR-TAF:

METAR-TAF

Аэропорты :

Иркутск, Россия

широта: 52-16N, долгота: 104-19E, высота над уровнем моря: 513 м

Текущие метеонаблюдения

Эта сводка был подготовлена 30 минут назад, в 06:30 UTC
Ветер 2 Узел переменных направлений
Температура -20°C
Влажность 77%
Давление 1034 hPa
Видимость 10 км и более
Нет облачности ниже 1500 м, и нет кучево-дождевой облачности

METAR: UIII 100630Z VRB01MPS CAVOK M20/M23 Q1034 R12/810350 NOSIG RMK QFE732/0977

Время: 15:00 (07:00 UTC)

Прогноз

Эта сводка был подготовлена 2 часа и 0 минут назад, в 05:00 UTC
Прогноз действительный с 10-го 06 UTC до 11-го 06 UTC
Ветер 6 Узел от юго-восточный
Видимость 10 км и более
Нет облачности ниже 1500 м, и нет кучево-дождевой облачности

TAF: UIII 100500Z 1006/1106 13003MPS CAVOK

Метеонаблюдения и прогнозы для более 4000 аэропортов (сводки METAR и TAF).

Имеющиеся станции представлены на карте желтыми и красными точками.

Чтобы увидеть название станции, наведите на нее мышь.

Затем щелкните, чтобы увидеть метеонаблюдения и метеопрогнозы.

Управление картой: чтобы увеличить масштаб, щелкните зеленые кнопки с черным крестиком; чтобы уменьшить масштаб, щелкните зеленую кнопку с тире; для просмотра соседних карт щелкайте зеленые стрелки.


METAR-TAF: